sensor_id;sensor_type;location;lat;lon;timestamp;P1;durP1;ratioP1;P2;durP2;ratioP2
41077;SDS011;26823;42.662;23.352;2023-02-28T00:01:18;15.00;;;8.90;;
41077;SDS011;26823;42.662;23.352;2023-02-28T00:03:44;19.67;;;9.38;;
41077;SDS011;26823;42.662;23.352;2023-02-28T00:06:09;20.88;;;9.38;;
41077;SDS011;26823;42.662;23.352;2023-02-28T00:08:35;18.90;;;9.60;;
41077;SDS011;26823;42.662;23.352;2023-02-28T00:11:05;17.77;;;9.68;;
41077;SDS011;26823;42.662;23.352;2023-02-28T00:13:34;24.73;;;10.25;;
41077;SDS011;26823;42.662;23.352;2023-02-28T00:16:01;19.10;;;9.55;;
41077;SDS011;26823;42.662;23.352;2023-02-28T00:18:28;25.45;;;10.25;;
41077;SDS011;26823;42.662;23.352;2023-02-28T00:20:53;18.50;;;10.45;;
41077;SDS011;26823;42.662;23.352;2023-02-28T00:23:19;16.98;;;9.15;;
41077;SDS011;26823;42.662;23.352;2023-02-28T00:25:44;19.65;;;11.02;;
41077;SDS011;26823;42.662;23.352;2023-02-28T00:28:10;20.77;;;10.15;;
41077;SDS011;26823;42.662;23.352;2023-02-28T00:30:35;15.40;;;9.55;;
41077;SDS011;26823;42.662;23.352;2023-02-28T00:33:01;16.52;;;8.98;;
41077;SDS011;26823;42.662;23.352;2023-02-28T00:35:26;18.02;;;9.20;;
41077;SDS011;26823;42.662;23.352;2023-02-28T00:37:51;21.42;;;10.27;;
41077;SDS011;26823;42.662;23.352;2023-02-28T00:40:17;22.45;;;10.50;;
41077;SDS011;26823;42.662;23.352;2023-02-28T00:42:42;22.73;;;10.82;;
41077;SDS011;26823;42.662;23.352;2023-02-28T00:45:08;20.48;;;9.65;;
41077;SDS011;26823;42.662;23.352;2023-02-28T00:47:33;19.95;;;9.98;;
41077;SDS011;26823;42.662;23.352;2023-02-28T00:49:59;19.05;;;10.25;;
41077;SDS011;26823;42.662;23.352;2023-02-28T00:52:25;16.17;;;8.63;;
41077;SDS011;26823;42.662;23.352;2023-02-28T00:54:50;17.27;;;9.30;;
41077;SDS011;26823;42.662;23.352;2023-02-28T00:57:16;22.15;;;10.50;;
41077;SDS011;26823;42.662;23.352;2023-02-28T00:59:41;21.10;;;10.20;;
41077;SDS011;26823;42.662;23.352;2023-02-28T01:02:07;19.50;;;10.35;;
41077;SDS011;26823;42.662;23.352;2023-02-28T01:04:32;15.55;;;9.77;;
41077;SDS011;26823;42.662;23.352;2023-02-28T01:06:58;23.77;;;10.93;;
41077;SDS011;26823;42.662;23.352;2023-02-28T01:09:23;18.65;;;9.82;;
41077;SDS011;26823;42.662;23.352;2023-02-28T01:11:48;19.98;;;10.40;;
41077;SDS011;26823;42.662;23.352;2023-02-28T01:14:14;20.75;;;10.77;;
41077;SDS011;26823;42.662;23.352;2023-02-28T01:16:41;19.48;;;9.98;;
41077;SDS011;26823;42.662;23.352;2023-02-28T01:19:08;21.83;;;11.07;;
41077;SDS011;26823;42.662;23.352;2023-02-28T01:21:33;22.42;;;12.82;;
41077;SDS011;26823;42.662;23.352;2023-02-28T01:23:59;24.08;;;12.82;;
41077;SDS011;26823;42.662;23.352;2023-02-28T01:26:25;24.95;;;12.35;;
41077;SDS011;26823;42.662;23.352;2023-02-28T01:28:51;29.63;;;13.32;;
41077;SDS011;26823;42.662;23.352;2023-02-28T01:31:18;27.15;;;12.95;;
41077;SDS011;26823;42.662;23.352;2023-02-28T01:33:45;24.58;;;13.77;;
41077;SDS011;26823;42.662;23.352;2023-02-28T01:36:14;25.45;;;12.13;;
41077;SDS011;26823;42.662;23.352;2023-02-28T01:38:44;25.35;;;14.05;;
41077;SDS011;26823;42.662;23.352;2023-02-28T01:41:12;24.17;;;12.73;;
41077;SDS011;26823;42.662;23.352;2023-02-28T01:46:12;28.05;;;13.38;;
41077;SDS011;26823;42.662;23.352;2023-02-28T01:48:56;24.95;;;12.55;;
41077;SDS011;26823;42.662;23.352;2023-02-28T01:54:07;26.58;;;13.65;;
41077;SDS011;26823;42.662;23.352;2023-02-28T01:56:38;24.90;;;12.88;;
41077;SDS011;26823;42.662;23.352;2023-02-28T02:01:42;24.98;;;11.70;;
41077;SDS011;26823;42.662;23.352;2023-02-28T02:04:08;27.08;;;12.50;;
41077;SDS011;26823;42.662;23.352;2023-02-28T02:09:12;28.15;;;13.55;;
41077;SDS011;26823;42.662;23.352;2023-02-28T02:11:39;23.52;;;13.70;;
41077;SDS011;26823;42.662;23.352;2023-02-28T02:36:27;31.20;;;13.73;;
41077;SDS011;26823;42.662;23.352;2023-02-28T02:39:01;28.95;;;13.70;;
41077;SDS011;26823;42.662;23.352;2023-02-28T02:41:34;27.75;;;14.48;;
41077;SDS011;26823;42.662;23.352;2023-02-28T02:46:41;29.85;;;14.70;;
41077;SDS011;26823;42.662;23.352;2023-02-28T02:49:10;32.22;;;13.77;;
41077;SDS011;26823;42.662;23.352;2023-02-28T02:51:40;28.30;;;14.13;;
41077;SDS011;26823;42.662;23.352;2023-02-28T02:54:08;32.30;;;14.05;;
41077;SDS011;26823;42.662;23.352;2023-02-28T02:56:35;27.67;;;13.77;;
41077;SDS011;26823;42.662;23.352;2023-02-28T02:59:06;24.17;;;13.00;;
41077;SDS011;26823;42.662;23.352;2023-02-28T03:01:35;23.92;;;13.38;;
41077;SDS011;26823;42.662;23.352;2023-02-28T03:04:04;24.88;;;14.00;;
41077;SDS011;26823;42.662;23.352;2023-02-28T03:06:43;27.33;;;13.30;;
41077;SDS011;26823;42.662;23.352;2023-02-28T03:09:08;30.33;;;14.43;;
41077;SDS011;26823;42.662;23.352;2023-02-28T03:11:35;26.85;;;14.30;;
41077;SDS011;26823;42.662;23.352;2023-02-28T03:16:58;25.98;;;13.13;;
41077;SDS011;26823;42.662;23.352;2023-02-28T03:30:31;25.42;;;13.43;;
41077;SDS011;26823;42.662;23.352;2023-02-28T03:33:00;24.95;;;13.02;;
41077;SDS011;26823;42.662;23.352;2023-02-28T03:38:14;30.35;;;13.90;;
41077;SDS011;26823;42.662;23.352;2023-02-28T03:40:47;28.13;;;14.38;;
41077;SDS011;26823;42.662;23.352;2023-02-28T03:43:18;32.67;;;15.02;;
41077;SDS011;26823;42.662;23.352;2023-02-28T03:45:47;29.88;;;15.60;;
41077;SDS011;26823;42.662;23.352;2023-02-28T03:48:18;33.67;;;16.88;;
41077;SDS011;26823;42.662;23.352;2023-02-28T03:50:49;36.20;;;15.68;;
41077;SDS011;26823;42.662;23.352;2023-02-28T03:58:55;38.45;;;17.13;;
41077;SDS011;26823;42.662;23.352;2023-02-28T04:01:27;43.25;;;18.55;;
41077;SDS011;26823;42.662;23.352;2023-02-28T04:03:58;42.03;;;17.63;;
41077;SDS011;26823;42.662;23.352;2023-02-28T04:06:23;40.88;;;16.67;;
41077;SDS011;26823;42.662;23.352;2023-02-28T04:08:49;43.55;;;17.38;;
41077;SDS011;26823;42.662;23.352;2023-02-28T04:14:03;33.25;;;16.13;;
41077;SDS011;26823;42.662;23.352;2023-02-28T04:16:30;41.58;;;17.92;;
41077;SDS011;26823;42.662;23.352;2023-02-28T04:18:57;36.22;;;16.33;;
41077;SDS011;26823;42.662;23.352;2023-02-28T04:21:29;32.10;;;15.57;;
41077;SDS011;26823;42.662;23.352;2023-02-28T04:23:59;39.08;;;15.13;;
41077;SDS011;26823;42.662;23.352;2023-02-28T04:26:35;27.75;;;14.05;;
41077;SDS011;26823;42.662;23.352;2023-02-28T04:29:08;28.95;;;13.73;;
41077;SDS011;26823;42.662;23.352;2023-02-28T04:31:35;33.58;;;15.05;;
41077;SDS011;26823;42.662;23.352;2023-02-28T04:34:01;33.15;;;15.35;;
41077;SDS011;26823;42.662;23.352;2023-02-28T04:36:27;26.52;;;13.63;;
41077;SDS011;26823;42.662;23.352;2023-02-28T04:38:53;41.22;;;15.65;;
41077;SDS011;26823;42.662;23.352;2023-02-28T04:41:19;33.75;;;15.27;;
41077;SDS011;26823;42.662;23.352;2023-02-28T04:43:45;34.00;;;15.70;;
41077;SDS011;26823;42.662;23.352;2023-02-28T04:46:10;34.83;;;16.02;;
41077;SDS011;26823;42.662;23.352;2023-02-28T04:48:36;32.78;;;15.43;;
41077;SDS011;26823;42.662;23.352;2023-02-28T04:51:04;33.72;;;15.85;;
41077;SDS011;26823;42.662;23.352;2023-02-28T04:53:32;34.15;;;16.48;;
41077;SDS011;26823;42.662;23.352;2023-02-28T04:55:58;38.03;;;16.48;;
41077;SDS011;26823;42.662;23.352;2023-02-28T04:58:23;35.72;;;16.50;;
41077;SDS011;26823;42.662;23.352;2023-02-28T05:00:49;38.38;;;15.85;;
41077;SDS011;26823;42.662;23.352;2023-02-28T05:03:15;36.75;;;18.02;;
41077;SDS011;26823;42.662;23.352;2023-02-28T05:05:41;37.45;;;15.77;;
41077;SDS011;26823;42.662;23.352;2023-02-28T05:08:06;41.92;;;17.55;;
41077;SDS011;26823;42.662;23.352;2023-02-28T05:10:32;43.08;;;19.05;;
41077;SDS011;26823;42.662;23.352;2023-02-28T05:12:57;37.65;;;18.17;;
41077;SDS011;26823;42.662;23.352;2023-02-28T05:15:23;41.10;;;18.70;;
41077;SDS011;26823;42.662;23.352;2023-02-28T05:17:49;40.15;;;18.23;;
41077;SDS011;26823;42.662;23.352;2023-02-28T05:20:14;40.72;;;18.58;;
41077;SDS011;26823;42.662;23.352;2023-02-28T05:22:40;34.13;;;16.77;;
41077;SDS011;26823;42.662;23.352;2023-02-28T05:25:06;39.03;;;18.45;;
41077;SDS011;26823;42.662;23.352;2023-02-28T05:27:38;40.88;;;18.95;;
41077;SDS011;26823;42.662;23.352;2023-02-28T05:30:04;40.58;;;17.73;;
41077;SDS011;26823;42.662;23.352;2023-02-28T05:32:31;41.70;;;19.73;;
41077;SDS011;26823;42.662;23.352;2023-02-28T05:34:56;45.40;;;20.85;;
41077;SDS011;26823;42.662;23.352;2023-02-28T05:37:22;49.55;;;20.95;;
41077;SDS011;26823;42.662;23.352;2023-02-28T05:39:47;42.15;;;19.10;;
41077;SDS011;26823;42.662;23.352;2023-02-28T05:42:13;47.05;;;19.45;;
41077;SDS011;26823;42.662;23.352;2023-02-28T05:44:38;47.00;;;19.02;;
41077;SDS011;26823;42.662;23.352;2023-02-28T05:47:04;39.28;;;18.92;;
41077;SDS011;26823;42.662;23.352;2023-02-28T05:49:29;49.38;;;18.98;;
41077;SDS011;26823;42.662;23.352;2023-02-28T05:51:54;45.85;;;19.55;;
41077;SDS011;26823;42.662;23.352;2023-02-28T05:54:20;55.47;;;21.20;;
41077;SDS011;26823;42.662;23.352;2023-02-28T05:56:45;47.65;;;21.00;;
41077;SDS011;26823;42.662;23.352;2023-02-28T05:59:11;54.58;;;21.70;;
41077;SDS011;26823;42.662;23.352;2023-02-28T06:01:39;49.95;;;21.55;;
41077;SDS011;26823;42.662;23.352;2023-02-28T06:04:18;45.45;;;19.85;;
41077;SDS011;26823;42.662;23.352;2023-02-28T06:06:45;50.55;;;21.10;;
41077;SDS011;26823;42.662;23.352;2023-02-28T06:09:12;41.47;;;19.27;;
41077;SDS011;26823;42.662;23.352;2023-02-28T06:11:38;49.88;;;19.88;;
41077;SDS011;26823;42.662;23.352;2023-02-28T06:14:04;45.00;;;18.58;;
41077;SDS011;26823;42.662;23.352;2023-02-28T06:16:31;49.63;;;21.00;;
41077;SDS011;26823;42.662;23.352;2023-02-28T06:18:58;43.90;;;18.92;;
41077;SDS011;26823;42.662;23.352;2023-02-28T06:21:25;39.25;;;20.08;;
41077;SDS011;26823;42.662;23.352;2023-02-28T06:23:52;42.92;;;19.90;;
41077;SDS011;26823;42.662;23.352;2023-02-28T06:26:17;51.47;;;21.52;;
41077;SDS011;26823;42.662;23.352;2023-02-28T06:28:43;45.80;;;20.98;;
41077;SDS011;26823;42.662;23.352;2023-02-28T06:31:09;50.92;;;21.17;;
41077;SDS011;26823;42.662;23.352;2023-02-28T06:33:37;39.90;;;20.65;;
41077;SDS011;26823;42.662;23.352;2023-02-28T06:36:03;46.45;;;19.63;;
41077;SDS011;26823;42.662;23.352;2023-02-28T06:38:30;53.70;;;23.75;;
41077;SDS011;26823;42.662;23.352;2023-02-28T06:40:57;46.17;;;21.48;;
41077;SDS011;26823;42.662;23.352;2023-02-28T06:43:24;53.00;;;21.90;;
41077;SDS011;26823;42.662;23.352;2023-02-28T06:45:53;41.80;;;19.35;;
41077;SDS011;26823;42.662;23.352;2023-02-28T06:48:23;43.28;;;19.85;;
41077;SDS011;26823;42.662;23.352;2023-02-28T06:50:49;42.47;;;21.40;;
41077;SDS011;26823;42.662;23.352;2023-02-28T06:53:14;41.53;;;19.95;;
41077;SDS011;26823;42.662;23.352;2023-02-28T06:55:40;40.10;;;19.92;;
41077;SDS011;26823;42.662;23.352;2023-02-28T06:58:06;36.88;;;19.75;;
41077;SDS011;26823;42.662;23.352;2023-02-28T07:00:42;43.03;;;19.65;;
41077;SDS011;26823;42.662;23.352;2023-02-28T07:03:09;44.38;;;20.42;;
41077;SDS011;26823;42.662;23.352;2023-02-28T07:05:36;42.80;;;20.63;;
41077;SDS011;26823;42.662;23.352;2023-02-28T07:08:02;44.85;;;18.70;;
41077;SDS011;26823;42.662;23.352;2023-02-28T07:10:29;36.90;;;17.77;;
41077;SDS011;26823;42.662;23.352;2023-02-28T07:12:54;42.75;;;18.25;;
41077;SDS011;26823;42.662;23.352;2023-02-28T07:15:20;38.58;;;18.35;;
41077;SDS011;26823;42.662;23.352;2023-02-28T07:17:45;34.85;;;18.23;;
41077;SDS011;26823;42.662;23.352;2023-02-28T07:20:11;37.35;;;18.38;;
41077;SDS011;26823;42.662;23.352;2023-02-28T07:22:37;38.17;;;17.92;;
41077;SDS011;26823;42.662;23.352;2023-02-28T07:25:03;31.67;;;17.30;;
41077;SDS011;26823;42.662;23.352;2023-02-28T07:27:29;34.25;;;17.80;;
41077;SDS011;26823;42.662;23.352;2023-02-28T07:29:55;36.22;;;18.45;;
41077;SDS011;26823;42.662;23.352;2023-02-28T07:32:20;34.88;;;18.33;;
41077;SDS011;26823;42.662;23.352;2023-02-28T07:34:46;37.58;;;16.30;;
41077;SDS011;26823;42.662;23.352;2023-02-28T07:37:11;33.00;;;18.50;;
41077;SDS011;26823;42.662;23.352;2023-02-28T07:39:36;33.33;;;18.55;;
41077;SDS011;26823;42.662;23.352;2023-02-28T07:42:05;33.75;;;19.00;;
41077;SDS011;26823;42.662;23.352;2023-02-28T07:44:34;35.88;;;17.95;;
41077;SDS011;26823;42.662;23.352;2023-02-28T07:47:00;34.13;;;18.42;;
41077;SDS011;26823;42.662;23.352;2023-02-28T07:49:25;38.03;;;18.85;;
41077;SDS011;26823;42.662;23.352;2023-02-28T07:51:51;32.72;;;17.90;;
41077;SDS011;26823;42.662;23.352;2023-02-28T07:54:16;40.60;;;18.73;;
41077;SDS011;26823;42.662;23.352;2023-02-28T07:56:42;31.67;;;18.00;;
41077;SDS011;26823;42.662;23.352;2023-02-28T07:59:07;36.65;;;18.40;;
41077;SDS011;26823;42.662;23.352;2023-02-28T08:01:32;32.97;;;18.15;;
41077;SDS011;26823;42.662;23.352;2023-02-28T08:03:58;31.67;;;17.80;;
41077;SDS011;26823;42.662;23.352;2023-02-28T08:06:24;35.13;;;17.23;;
41077;SDS011;26823;42.662;23.352;2023-02-28T08:08:51;37.00;;;17.20;;
41077;SDS011;26823;42.662;23.352;2023-02-28T08:11:17;30.13;;;16.35;;
41077;SDS011;26823;42.662;23.352;2023-02-28T08:13:43;31.27;;;17.85;;
41077;SDS011;26823;42.662;23.352;2023-02-28T08:16:10;30.83;;;16.95;;
41077;SDS011;26823;42.662;23.352;2023-02-28T08:18:36;28.75;;;15.75;;
41077;SDS011;26823;42.662;23.352;2023-02-28T08:21:08;31.52;;;17.38;;
41077;SDS011;26823;42.662;23.352;2023-02-28T08:23:35;29.05;;;17.02;;
41077;SDS011;26823;42.662;23.352;2023-02-28T08:26:01;31.50;;;16.98;;
41077;SDS011;26823;42.662;23.352;2023-02-28T08:28:27;30.73;;;16.33;;
41077;SDS011;26823;42.662;23.352;2023-02-28T08:30:52;36.05;;;17.17;;
41077;SDS011;26823;42.662;23.352;2023-02-28T08:33:18;33.35;;;17.45;;
41077;SDS011;26823;42.662;23.352;2023-02-28T08:35:44;32.65;;;17.35;;
41077;SDS011;26823;42.662;23.352;2023-02-28T08:38:09;30.02;;;16.77;;
41077;SDS011;26823;42.662;23.352;2023-02-28T08:40:34;32.90;;;17.35;;
41077;SDS011;26823;42.662;23.352;2023-02-28T08:43:00;29.52;;;16.67;;
41077;SDS011;26823;42.662;23.352;2023-02-28T08:45:25;33.50;;;17.00;;
41077;SDS011;26823;42.662;23.352;2023-02-28T08:47:51;28.40;;;17.17;;
41077;SDS011;26823;42.662;23.352;2023-02-28T08:50:17;28.20;;;15.60;;
41077;SDS011;26823;42.662;23.352;2023-02-28T08:52:43;24.63;;;13.35;;
41077;SDS011;26823;42.662;23.352;2023-02-28T08:55:09;27.27;;;13.65;;
41077;SDS011;26823;42.662;23.352;2023-02-28T08:57:35;29.02;;;12.90;;
41077;SDS011;26823;42.662;23.352;2023-02-28T09:00:00;32.80;;;13.30;;
41077;SDS011;26823;42.662;23.352;2023-02-28T09:02:29;24.85;;;13.00;;
41077;SDS011;26823;42.662;23.352;2023-02-28T09:04:56;30.40;;;13.27;;
41077;SDS011;26823;42.662;23.352;2023-02-28T09:07:21;19.40;;;12.27;;
41077;SDS011;26823;42.662;23.352;2023-02-28T09:09:47;24.52;;;11.98;;
41077;SDS011;26823;42.662;23.352;2023-02-28T09:12:19;27.02;;;12.60;;
41077;SDS011;26823;42.662;23.352;2023-02-28T09:14:48;34.88;;;14.90;;
41077;SDS011;26823;42.662;23.352;2023-02-28T09:17:14;36.05;;;16.90;;
41077;SDS011;26823;42.662;23.352;2023-02-28T09:19:40;35.95;;;18.40;;
41077;SDS011;26823;42.662;23.352;2023-02-28T09:22:05;29.88;;;16.38;;
41077;SDS011;26823;42.662;23.352;2023-02-28T09:24:31;29.42;;;16.27;;
41077;SDS011;26823;42.662;23.352;2023-02-28T09:26:56;28.27;;;13.73;;
41077;SDS011;26823;42.662;23.352;2023-02-28T09:29:22;26.30;;;12.15;;
41077;SDS011;26823;42.662;23.352;2023-02-28T09:31:47;27.63;;;13.45;;
41077;SDS011;26823;42.662;23.352;2023-02-28T09:34:13;26.02;;;11.80;;
41077;SDS011;26823;42.662;23.352;2023-02-28T09:36:38;29.52;;;12.93;;
41077;SDS011;26823;42.662;23.352;2023-02-28T09:39:04;27.15;;;13.15;;
41077;SDS011;26823;42.662;23.352;2023-02-28T09:41:32;21.65;;;11.80;;
41077;SDS011;26823;42.662;23.352;2023-02-28T09:44:13;19.77;;;10.98;;
41077;SDS011;26823;42.662;23.352;2023-02-28T09:47:01;24.23;;;11.88;;
41077;SDS011;26823;42.662;23.352;2023-02-28T09:49:38;23.70;;;12.88;;
41077;SDS011;26823;42.662;23.352;2023-02-28T09:52:12;24.45;;;10.57;;
41077;SDS011;26823;42.662;23.352;2023-02-28T09:54:41;23.80;;;10.93;;
41077;SDS011;26823;42.662;23.352;2023-02-28T09:59:54;23.92;;;11.57;;
41077;SDS011;26823;42.662;23.352;2023-02-28T10:05:20;19.77;;;9.77;;
41077;SDS011;26823;42.662;23.352;2023-02-28T10:13:05;21.27;;;10.00;;
41077;SDS011;26823;42.662;23.352;2023-02-28T10:15:37;22.63;;;10.50;;
41077;SDS011;26823;42.662;23.352;2023-02-28T10:18:04;19.42;;;10.70;;
41077;SDS011;26823;42.662;23.352;2023-02-28T10:20:34;19.60;;;9.77;;
41077;SDS011;26823;42.662;23.352;2023-02-28T10:24:05;17.60;;;10.60;;
41077;SDS011;26823;42.662;23.352;2023-02-28T10:26:09;21.00;;;9.23;;
41077;SDS011;26823;42.662;23.352;2023-02-28T10:28:37;13.05;;;8.52;;
41077;SDS011;26823;42.662;23.352;2023-02-28T10:31:03;18.55;;;9.35;;
41077;SDS011;26823;42.662;23.352;2023-02-28T10:33:33;20.45;;;10.93;;
41077;SDS011;26823;42.662;23.352;2023-02-28T10:36:00;16.67;;;9.05;;
41077;SDS011;26823;42.662;23.352;2023-02-28T10:38:33;19.90;;;10.27;;
41077;SDS011;26823;42.662;23.352;2023-02-28T10:41:08;18.00;;;9.87;;
41077;SDS011;26823;42.662;23.352;2023-02-28T10:43:36;18.45;;;9.13;;
41077;SDS011;26823;42.662;23.352;2023-02-28T10:51:02;18.10;;;8.25;;
41077;SDS011;26823;42.662;23.352;2023-02-28T11:03:46;16.88;;;8.57;;
41077;SDS011;26823;42.662;23.352;2023-02-28T11:06:14;25.75;;;9.32;;
41077;SDS011;26823;42.662;23.352;2023-02-28T11:08:43;15.98;;;8.15;;
41077;SDS011;26823;42.662;23.352;2023-02-28T11:11:11;11.98;;;8.20;;
41077;SDS011;26823;42.662;23.352;2023-02-28T11:13:37;16.10;;;9.10;;
41077;SDS011;26823;42.662;23.352;2023-02-28T11:16:04;16.63;;;8.73;;
41077;SDS011;26823;42.662;23.352;2023-02-28T11:21:21;17.27;;;8.60;;
41077;SDS011;26823;42.662;23.352;2023-02-28T11:23:48;15.05;;;8.65;;
41077;SDS011;26823;42.662;23.352;2023-02-28T11:26:15;19.25;;;8.35;;
41077;SDS011;26823;42.662;23.352;2023-02-28T11:29:08;12.52;;;7.60;;
41077;SDS011;26823;42.662;23.352;2023-02-28T11:31:36;27.73;;;9.43;;
41077;SDS011;26823;42.662;23.352;2023-02-28T11:34:07;13.57;;;7.97;;
41077;SDS011;26823;42.662;23.352;2023-02-28T11:36:48;15.40;;;9.50;;
41077;SDS011;26823;42.662;23.352;2023-02-28T11:39:14;16.98;;;8.15;;
41077;SDS011;26823;42.662;23.352;2023-02-28T11:47:23;21.73;;;9.45;;
41077;SDS011;26823;42.662;23.352;2023-02-28T11:52:45;22.35;;;10.18;;
41077;SDS011;26823;42.662;23.352;2023-02-28T11:55:27;22.95;;;9.68;;
41077;SDS011;26823;42.662;23.352;2023-02-28T12:06:45;17.85;;;9.35;;
41077;SDS011;26823;42.662;23.352;2023-02-28T12:20:41;20.10;;;9.95;;
41077;SDS011;26823;42.662;23.352;2023-02-28T12:28:41;19.23;;;9.63;;
41077;SDS011;26823;42.662;23.352;2023-02-28T12:33:47;20.53;;;10.23;;
41077;SDS011;26823;42.662;23.352;2023-02-28T12:36:17;19.65;;;9.88;;
41077;SDS011;26823;42.662;23.352;2023-02-28T12:41:54;17.33;;;9.25;;
41077;SDS011;26823;42.662;23.352;2023-02-28T12:44:30;20.17;;;9.45;;
41077;SDS011;26823;42.662;23.352;2023-02-28T12:49:34;15.77;;;8.57;;
41077;SDS011;26823;42.662;23.352;2023-02-28T12:52:04;15.32;;;8.55;;
41077;SDS011;26823;42.662;23.352;2023-02-28T12:57:13;22.13;;;9.05;;
41077;SDS011;26823;42.662;23.352;2023-02-28T12:59:59;17.00;;;8.50;;
41077;SDS011;26823;42.662;23.352;2023-02-28T13:11:24;17.40;;;8.75;;
41077;SDS011;26823;42.662;23.352;2023-02-28T13:13:57;17.63;;;8.88;;
41077;SDS011;26823;42.662;23.352;2023-02-28T13:16:25;17.55;;;9.27;;
41077;SDS011;26823;42.662;23.352;2023-02-28T13:18:50;21.80;;;10.13;;
41077;SDS011;26823;42.662;23.352;2023-02-28T13:21:27;19.83;;;9.13;;
41077;SDS011;26823;42.662;23.352;2023-02-28T13:34:35;18.23;;;7.53;;
41077;SDS011;26823;42.662;23.352;2023-02-28T13:39:50;19.20;;;8.43;;
41077;SDS011;26823;42.662;23.352;2023-02-28T13:55:27;18.55;;;7.85;;
41077;SDS011;26823;42.662;23.352;2023-02-28T14:11:32;14.13;;;8.40;;
41077;SDS011;26823;42.662;23.352;2023-02-28T14:13:59;16.42;;;7.32;;
41077;SDS011;26823;42.662;23.352;2023-02-28T14:16:27;21.45;;;8.57;;
41077;SDS011;26823;42.662;23.352;2023-02-28T14:19:12;19.08;;;8.50;;
41077;SDS011;26823;42.662;23.352;2023-02-28T14:21:39;14.65;;;8.43;;
41077;SDS011;26823;42.662;23.352;2023-02-28T14:24:22;16.08;;;8.00;;
41077;SDS011;26823;42.662;23.352;2023-02-28T14:38:29;18.15;;;8.27;;
41077;SDS011;26823;42.662;23.352;2023-02-28T14:40:58;15.88;;;7.65;;
41077;SDS011;26823;42.662;23.352;2023-02-28T14:43:28;15.98;;;8.48;;
41077;SDS011;26823;42.662;23.352;2023-02-28T14:45:55;17.60;;;9.30;;
41077;SDS011;26823;42.662;23.352;2023-02-28T14:48:23;17.83;;;7.78;;
41077;SDS011;26823;42.662;23.352;2023-02-28T14:50:52;17.15;;;8.13;;
41077;SDS011;26823;42.662;23.352;2023-02-28T14:53:19;18.23;;;7.80;;
41077;SDS011;26823;42.662;23.352;2023-02-28T14:55:47;16.50;;;7.18;;
41077;SDS011;26823;42.662;23.352;2023-02-28T14:58:22;17.08;;;6.85;;
41077;SDS011;26823;42.662;23.352;2023-02-28T15:00:52;18.88;;;8.30;;
41077;SDS011;26823;42.662;23.352;2023-02-28T15:03:21;17.75;;;8.48;;
41077;SDS011;26823;42.662;23.352;2023-02-28T15:05:56;18.85;;;7.65;;
41077;SDS011;26823;42.662;23.352;2023-02-28T15:10:54;14.10;;;7.45;;
41077;SDS011;26823;42.662;23.352;2023-02-28T15:13:19;15.55;;;9.32;;
41077;SDS011;26823;42.662;23.352;2023-02-28T15:15:56;17.00;;;7.95;;
41077;SDS011;26823;42.662;23.352;2023-02-28T15:21:01;20.08;;;7.45;;
41077;SDS011;26823;42.662;23.352;2023-02-28T15:23:30;19.02;;;7.22;;
41077;SDS011;26823;42.662;23.352;2023-02-28T15:25:58;18.92;;;7.25;;
41077;SDS011;26823;42.662;23.352;2023-02-28T15:28:24;14.70;;;6.25;;
41077;SDS011;26823;42.662;23.352;2023-02-28T15:33:24;12.43;;;6.60;;
41077;SDS011;26823;42.662;23.352;2023-02-28T15:35:51;12.30;;;5.78;;
41077;SDS011;26823;42.662;23.352;2023-02-28T15:38:25;10.27;;;6.28;;
41077;SDS011;26823;42.662;23.352;2023-02-28T15:40:55;22.52;;;7.45;;
41077;SDS011;26823;42.662;23.352;2023-02-28T15:43:26;11.88;;;6.22;;
41077;SDS011;26823;42.662;23.352;2023-02-28T15:45:55;14.43;;;6.50;;
41077;SDS011;26823;42.662;23.352;2023-02-28T15:48:28;11.60;;;6.90;;
41077;SDS011;26823;42.662;23.352;2023-02-28T15:53:41;10.63;;;6.15;;
41077;SDS011;26823;42.662;23.352;2023-02-28T15:56:20;14.47;;;5.83;;
41077;SDS011;26823;42.662;23.352;2023-02-28T15:58:49;10.73;;;5.25;;
41077;SDS011;26823;42.662;23.352;2023-02-28T16:01:21;11.70;;;5.97;;
41077;SDS011;26823;42.662;23.352;2023-02-28T16:03:51;11.10;;;6.25;;
41077;SDS011;26823;42.662;23.352;2023-02-28T16:08:49;12.00;;;6.30;;
41077;SDS011;26823;42.662;23.352;2023-02-28T16:11:16;14.95;;;6.70;;
41077;SDS011;26823;42.662;23.352;2023-02-28T16:13:42;9.25;;;5.97;;
41077;SDS011;26823;42.662;23.352;2023-02-28T16:16:07;10.98;;;5.95;;
41077;SDS011;26823;42.662;23.352;2023-02-28T16:18:33;7.18;;;5.25;;
41077;SDS011;26823;42.662;23.352;2023-02-28T16:20:58;10.68;;;6.50;;
41077;SDS011;26823;42.662;23.352;2023-02-28T16:23:24;10.82;;;6.68;;
41077;SDS011;26823;42.662;23.352;2023-02-28T16:25:49;11.45;;;6.13;;
41077;SDS011;26823;42.662;23.352;2023-02-28T16:28:24;14.98;;;7.13;;
41077;SDS011;26823;42.662;23.352;2023-02-28T16:30:56;8.98;;;5.72;;
41077;SDS011;26823;42.662;23.352;2023-02-28T16:33:21;17.02;;;6.57;;
41077;SDS011;26823;42.662;23.352;2023-02-28T16:35:47;11.27;;;6.03;;
41077;SDS011;26823;42.662;23.352;2023-02-28T16:38:12;8.93;;;5.80;;
41077;SDS011;26823;42.662;23.352;2023-02-28T16:40:37;8.88;;;5.68;;
41077;SDS011;26823;42.662;23.352;2023-02-28T16:43:23;9.27;;;5.47;;
41077;SDS011;26823;42.662;23.352;2023-02-28T16:45:56;9.73;;;5.20;;
41077;SDS011;26823;42.662;23.352;2023-02-28T16:48:28;8.40;;;5.07;;
41077;SDS011;26823;42.662;23.352;2023-02-28T16:50:53;8.23;;;5.47;;
41077;SDS011;26823;42.662;23.352;2023-02-28T16:53:18;11.10;;;5.63;;
41077;SDS011;26823;42.662;23.352;2023-02-28T16:55:44;6.47;;;4.78;;
41077;SDS011;26823;42.662;23.352;2023-02-28T16:58:13;7.93;;;4.57;;
41077;SDS011;26823;42.662;23.352;2023-02-28T17:00:40;10.00;;;4.68;;
41077;SDS011;26823;42.662;23.352;2023-02-28T17:03:10;8.55;;;4.38;;
41077;SDS011;26823;42.662;23.352;2023-02-28T17:05:52;7.20;;;4.97;;
41077;SDS011;26823;42.662;23.352;2023-02-28T17:08:17;11.98;;;4.22;;
41077;SDS011;26823;42.662;23.352;2023-02-28T17:10:43;9.40;;;4.85;;
41077;SDS011;26823;42.662;23.352;2023-02-28T17:13:08;8.50;;;4.88;;
41077;SDS011;26823;42.662;23.352;2023-02-28T17:15:34;9.88;;;4.90;;
41077;SDS011;26823;42.662;23.352;2023-02-28T17:18:00;10.15;;;5.40;;
41077;SDS011;26823;42.662;23.352;2023-02-28T17:20:26;7.35;;;4.78;;
41077;SDS011;26823;42.662;23.352;2023-02-28T17:22:54;8.45;;;4.63;;
41077;SDS011;26823;42.662;23.352;2023-02-28T17:25:21;6.53;;;3.92;;
41077;SDS011;26823;42.662;23.352;2023-02-28T17:27:55;7.20;;;4.22;;
41077;SDS011;26823;42.662;23.352;2023-02-28T17:30:34;9.73;;;4.22;;
41077;SDS011;26823;42.662;23.352;2023-02-28T17:33:00;9.43;;;4.93;;
41077;SDS011;26823;42.662;23.352;2023-02-28T17:35:25;9.02;;;4.15;;
41077;SDS011;26823;42.662;23.352;2023-02-28T17:37:51;7.13;;;4.57;;
41077;SDS011;26823;42.662;23.352;2023-02-28T17:40:19;7.93;;;4.28;;
41077;SDS011;26823;42.662;23.352;2023-02-28T17:42:45;9.13;;;4.30;;
41077;SDS011;26823;42.662;23.352;2023-02-28T17:45:12;9.00;;;4.55;;
41077;SDS011;26823;42.662;23.352;2023-02-28T17:47:38;6.43;;;3.72;;
41077;SDS011;26823;42.662;23.352;2023-02-28T17:50:05;7.25;;;3.92;;